Tiempo atmosférico en la estación meteorológica de La Roda de Andalucía, Sevilla (410 m.)



Fecha
DESCASC
Temp. máxima en grados centígrados (hora)
DESCASC
Temp. mínima en grados centígrados (hora)
DESCASC
Temp. media en grados centígrados
DESCASC
Racha de viento máxima en m/sg (hora)
DESCASC
Velocidad máxima media en intervalos de 10 minutos(hora)
DESCASC
Precipitaciones diarias en mm
DESCASC
Precipitaciones de 00:00 a 06:00 en mm
DESCASC
Precipitaciones de 06:00 a 12:00 en mm
DESCASC
Precipitaciones de 12:00 a 18:00 en mm
DESCASC
Precipitaciones de 18:00 a 24:00 en mm
DESCASC
03-01-2020 12.5 (13:40) 2.2 (00:00) 7.4 5 (15:10) 3.61 (15:40) 0.2 0.2 0 0 0
19-12-2019 13.7 (12:40) 6.4 (01:10) 10 12.22 (13:10) 6.39 (11:00) 5.8 0 0.2 0 5.6
10-01-2020 13.8 (16:20) 0.8 (00:00) 7.3 9.17 (16:30) 5.83 (15:20) 0 0 0 0 0
14-01-2020 14.1 (14:50) -0.6 (-00:0) 6.8 5 (14:00) 2.5 (14:30) 0 0 0 0 0
04-01-2020 14.6 (16:50) 4.2 (00:00) 9.4 6.39 (16:50) 3.61 (17:20) 0 0 0 0 0
30-12-2019 14.7 (15:40) 5 (00:00) 9.8 11.11 (11:40) 6.67 (13:00) 0 0 0 0 0
29-12-2019 14.9 (16:00) 8.2 (00:00) 11.5 14.44 (10:20) 8.06 (10:20) 0 0 0 0 0
12-01-2020 15 (15:20) 1.3 (08:20) 8.1 5 (01:40) 3.33 (02:30) 0 0 0 0 0
31-12-2019 15.1 (15:40) 3.3 (00:00) 9.2 10.83 (16:40) 6.11 (12:50) 0 0 0 0 0
13-01-2020 15.6 (13:50) 2.4 (00:00) 9 5.83 (11:20) 3.33 (00:30) 0.2 0 0.2 0 0
17-01-2020 15.8 (14:50) 4.5 (00:00) 10.2 4.72 (03:40) 3.33 (03:10) 0 0 0 0 0
11-01-2020 16 (17:00) -1 (-00:0) 7.5 5.28 (23:40) 3.33 (22:20) 0 0 0 0 0
05-01-2020 16.2 (16:00) 4.7 (00:00) 10.5 7.22 (16:10) 3.89 (18:10) 0 0 0 0 0
02-01-2020 16.3 (16:00) 6.3 (00:00) 11.3 8.33 (07:40) 5 (08:20) 0 0 0 0 0
22-12-2019 16.4 (13:20) 7.8 (09:00) 12.1 10 (01:00) 5 (17:20) 0 0 0 0 0
09-01-2020 16.5 (15:30) 3.5 (00:00) 10 8.06 (00:50) 4.72 (00:20) 0 0 0 0 0
06-01-2020 16.7 (16:10) 2.1 (00:00) 9.4 4.72 (12:00) 3.33 (02:50) 0.2 0 0.2 0 0
20-12-2019 17 (16:10) 13.4 (00:00) 15.2 18.89 (10:10) 9.72 (10:10) 33 7 10.6 12.8 2.6
23-12-2019 17.2 (16:20) 7.5 (00:00) 12.4 4.17 (01:20) 2.22 (00:40) 0.2 0 0.2 0 0
21-12-2019 17.6 (14:40) 13.8 (23:59) 15.7 16.39 (14:20) 8.89 (16:00) 3.6 2.6 0.4 0.6 0
15-01-2020 17.7 (14:20) 0.7 (00:00) 9.2 5 (15:10) 2.78 (16:20) 0 0 0 0 0
28-12-2019 17.9 (15:20) 7.5 (00:00) 12.7 10.28 (11:40) 5.83 (11:40) 0 0 0 0 0
08-01-2020 18.6 (15:00) 2.7 (00:00) 10.7 6.67 (23:59) 4.17 (07:20) 0 0 0 0 0
27-12-2019 18.7 (16:00) 9.2 (00:00) 14 9.44 (11:20) 5.83 (11:20) 0 0 0 0 0
01-01-2020 18.9 (16:20) 4.8 (00:00) 11.8 6.39 (02:30) 4.17 (02:30) 0 0 0 0 0
16-01-2020 18.9 (14:50) 2.3 (00:00) 10.6 6.67 (13:10) 3.61 (13:10) 0 0 0 0 0
26-12-2019 19.6 (14:20) 6.1 (00:00) 12.9 4.72 (08:50) 3.06 (06:00) 0 0 0 0 0
07-01-2020 19.7 (16:50) 2.5 (00:00) 11.1 5.56 (08:10) 3.61 (08:10) 0.2 0 0.2 0 0
24-12-2019 20.7 (15:10) 4.5 (08:00) 12.6 7.22 (16:10) 3.89 (15:10) 0.2 0 0.2 0 0
25-12-2019 23 (15:40) 5.4 (00:00) 14.2 5.56 (11:20) 3.61 (11:30) 0 0 0 0 0

Gráficas

Temp. máximas Temp. mínimas Temp. medias Precipitaciones Rachas de viento máximas Velocidades máximas media en intervalos de 10 minutos

Datos horarios

Fecha y hora oficial Temperatura (ºC) Velocidad del viento (km/h) Dirección del viento Racha (km/h) Dirección de racha Precipitación (mm) Presión (hPa) Tendencia (hPa) Humedad (%)
2020-01-17 23:00:00 5.2 5 Sur 7 Sur 0 983.2 0.2 89
2020-01-17 22:00:00 6.2 3 Sudoeste 9 Sur 0 983.1 0.4 89
2020-01-17 21:00:00 6 5 Sur 10 Sur 0 983 1 87
2020-01-17 20:00:00 7.3 8 Sur 9 Sur 0 983 1.5 82
2020-01-17 19:00:00 9.5 5 Sur 8 Sur 0 982.7 0.9 76
2020-01-17 18:00:00 13.4 6 Norte 10 Noroeste 0 982 -0.1 64
2020-01-17 17:00:00 14.8 7 Norte 13 Norte 0 981.5 -1.3 58
2020-01-17 16:00:00 15.2 7 Norte 13 Norte 0 981.8 -1.8 58
2020-01-17 15:00:00 15.7 4 Nordeste 10 Nordeste 0 982.1 -2.1 56
2020-01-17 14:00:00 14.5 3 Noroeste 11 Nordeste 0 982.8 -1.2 59
2020-01-17 13:00:00 13.9 3 Sudeste 7 Sudeste 0 983.6 0.2 59
2020-01-17 12:00:00 12 4 Norte 8 Norte 0 984.2 1.6 60
2020-01-17 11:00:00 9.2 3 Sur 8 Sur 0 984 1.7 72
2020-01-17 10:00:00 8.5 4 Sudoeste 13 Sur 0 983.4 2.1 64
2020-01-17 09:00:00 6.9 10 Sur 15 Sur 0 982.6 1.4 68
2020-01-17 08:00:00 6 7 Sudoeste 13 Sur 0 982.3 1.5 71
2020-01-17 07:00:00 6.1 9 Sur 15 Oeste 0 981.3 0.3 70
2020-01-17 06:00:00 4.5 5 Sur 15 Sur 0 981.2 0.3 76
2020-01-17 05:00:00 5.9 10 Sur 17 Sur 0 980.8 0 71
2020-01-17 04:00:00 5.6 10 Sur 17 Sur 0 981 -0.1 72
2020-01-17 03:00:00 5.7 11 Sur 15 Sur 0 980.9 -0.2 75
2020-01-17 02:00:00 6.9 10 Sur 14 Sur 0 980.8 0.4 73
2020-01-17 01:00:00 7.4 4 Sur 12 Sur 0 981.1 0.7 73
2020-01-17 00:00:00 7.5 8 Sur 12 Sur 0 981.1 1.3 72
2020-01-16 23:00:00 6.2 5 Sur 8 Sudoeste 0 980.4 1 75
2020-01-16 22:00:00 7.4 9 Sudoeste 12 Sudoeste 0 980.4 1.5 67
2020-01-16 21:00:00 8.4 8 Sur 10 Sur 0 979.8 1.5 61
2020-01-16 20:00:00 7.6 9 Sur 10 Sur 0 979.4 1.4 62
2020-01-16 19:00:00 11.1 5 Sur 7 Sur 0 978.9 1.1 50
2020-01-16 18:00:00 15.8 6 Oeste 15 Oeste 0 978.3 0.3 35
2020-01-16 17:00:00 17.3 9 Norte 16 Noroeste 0 978 -0.5 29
2020-01-16 16:00:00 18.3 6 Noroeste 19 Oeste 0 977.8 -1.2 29
2020-01-16 15:00:00 18.8 10 Sudoeste 19 Sur 0 978 -1.7 28
2020-01-16 14:00:00 17.9 10 Sudoeste 24 Sur 0 978.5 -1.4 30
2020-01-16 13:00:00 16.4 12 Sur 21 Sur 0 979 -0.2 36
2020-01-16 12:00:00 13.6 8 Sur 14 Sur 0 979.7 0.8 47
2020-01-16 11:00:00 10.1 8 Sur 14 Sur 0 979.9 1.2 62
2020-01-16 10:00:00 5.9 9 Sur 16 Sur 0 979.2 0.9 74
2020-01-16 09:00:00 3.4 4 Sur 13 Sur 0 978.9 0.8 86
2020-01-16 08:00:00 3 11 Sur 14 Sur 0 978.7 0.3 86
2020-01-16 07:00:00 3.2 8 Sur 14 Sur 0 978.3 -0.3 85
2020-01-16 06:00:00 3.9 7 Sur 16 Sur 0 978.1 -0.6 81
2020-01-16 05:00:00 4.2 10 Sur 16 Sur 0 978.4 -0.5 86
2020-01-16 04:00:00 3.1 5 Sur 12 Sur 0 978.6 -0.4 88
2020-01-16 03:00:00 3 2 Sudeste 11 Sur 0 978.7 -0.3 87
2020-01-16 02:00:00 3.9 5 Sur 11 Sur 0 978.9 0.1 86
2020-01-16 01:00:00 4.2 4 Sudoeste 14 Sur 0 979 0.2 86
2020-01-16 00:00:00 4.6 7 Sur 11 Sur 0 979 0.3 87
2020-01-15 23:00:00 4.4 7 Sur 9 Sur 0 978.8 0.2 86
2020-01-15 22:00:00 5.9 5 Sur 12 Sur 0 978.8 0.6 85
2020-01-15 21:00:00 6.2 7 Sur 9 Sur 0 978.7 0.9 81
2020-01-15 20:00:00 7.7 8 Sur 9 Sur 0 978.6 1.3 75
2020-01-15 19:00:00 10.7 4 Sur 6 Sur 0 978.2 1.2 63
2020-01-15 18:00:00 13.9 3 Norte 15 Norte 0 977.8 0.8 54
2020-01-15 17:00:00 16.2 9 Norte 17 Norte 0 977.3 -0.1 43
2020-01-15 16:00:00 16.7 8 Norte 18 Noroeste 0 977 -0.9 39
2020-01-15 15:00:00 16.9 6 Norte 13 Norte 0 977 -1.4 33
2020-01-15 14:00:00 16.6 3 Oeste 8 Oeste 0 977.4 -0.6 35
2020-01-15 13:00:00 14.7 4 Noroeste 9 Oeste 0 977.9 0.6 43
2020-01-15 12:00:00 13.2 5 Sur 13 Sudoeste 0 978.4 1.8 50
2020-01-15 11:00:00 9.7 3 Sudoeste 9 Sur 0 978 1.9 64
2020-01-15 10:00:00 5.9 5 Sur 15 Sur 0 977.3 1.9 77
2020-01-15 09:00:00 3 6 Sur 12 Sur 0 976.6 1.3 87
2020-01-15 08:00:00 2.6 4 Sur 12 Sur 0 976.1 0.8 90
2020-01-15 07:00:00 2 5 Sur 11 Sur 0 975.4 -0.2 91
2020-01-15 06:00:00 0.7 2 Oeste 6 Noroeste 0 975.3 -0.4 89
2020-01-15 05:00:00 1.7 4 Sudoeste 8 Sur 0 975.3 -0.3 89
2020-01-15 04:00:00 1.7 0 Calma 7 Noroeste 0 975.6 -0.2 86
2020-01-15 03:00:00 3.1 0 Calma 9 Sur 0 975.7 -0.5 82
2020-01-15 02:00:00 4.9 6 Sur 11 Sur 0 975.6 -0.3 79
2020-01-15 01:00:00 5.2 6 Sur 12 Sur 0 975.8 0.2 81
2020-01-15 00:00:00 4.9 8 Sur 12 Sur 0 976.2 0.6 84
2020-01-14 23:00:00 3.8 8 Sur 10 Sur 0 975.9 0.6 86
2020-01-14 22:00:00 3.9 7 Sur 8 Sur 0 975.6 0.6 83
2020-01-14 21:00:00 4.4 4 Sur 8 Sur 0 975.6 1.2 78
2020-01-14 20:00:00 5.4 8 Sur 10 Sur 0 975.3 1.2 75
2020-01-14 19:00:00 8.1 6 Sur 8 Sur 0 975 1 65
2020-01-14 18:00:00 11.9 3 Nordeste -- -- 0 974.4 0.2 49
2020-01-14 17:00:00 13.5 3 Este 10 Noroeste 0 974.1 -0.6 43
2020-01-14 16:00:00 13.1 5 Noroeste 14 Noroeste 0 974 -1.5 43
2020-01-14 15:00:00 13.6 8 Noroeste 16 Noroeste 0 974.2 -2 45
2020-01-14 14:00:00 13.6 5 Norte 18 Noroeste 0 974.7 -1.1 46
2020-01-14 13:00:00 12.2 7 Norte 14 Noroeste 0 975.5 0.1 49
2020-01-14 12:00:00 10.9 5 Sur 10 Sur 0 976.2 1.3 59
2020-01-14 11:00:00 8.6 2 Noroeste 6 Sudoeste 0 975.8 1.1 75
2020-01-14 10:00:00 4.2 4 Sudoeste 9 Sur 0 975.4 1 91
2020-01-14 09:00:00 2.7 3 Sudoeste 4 Sur 0 974.9 0.8 93
2020-01-14 08:00:00 1.6 3 Sudeste 8 Sur 0 974.7 0.3 93
2020-01-14 07:00:00 0.9 3 Sur 10 Sur 0 974.4 -0.2 92
2020-01-14 06:00:00 -0.3 7 Sur 8 Sur 0 974.1 -0.8 92
2020-01-14 05:00:00 -0.5 2 Oeste 8 Sur 0 974.4 -0.8 91
2020-01-14 04:00:00 0 5 Sur 9 Sur 0 974.6 -1 91
2020-01-14 03:00:00 0.7 4 Sur 7 Sur 0 974.9 -1 89
2020-01-14 02:00:00 1.9 6 Sur 9 Sur 0 975.2 -0.8 88
2020-01-14 01:00:00 2.7 8 Sur 12 Sur 0 975.6 -0.5 89
2020-01-14 00:00:00 3.2 9 Sur 11 Sur 0 975.9 -0.3 90
2020-01-13 23:00:00 2.6 8 Sur 10 Sur 0 976 -0.4 87
2020-01-13 22:00:00 2.9 7 Sur 9 Sur 0 976.1 -0.1 84
2020-01-13 21:00:00 3.9 7 Sur 9 Sur 0 976.2 0.5 80
2020-01-13 20:00:00 5.4 4 Sur 8 Sur 0 976.4 0.9 73
2020-01-13 19:00:00 8.8 2 Sudoeste 12 Norte 0 976.2 0.5 59
2020-01-13 18:00:00 11.7 7 Norte 14 Norte 0 975.7 -0.3 49
2020-01-13 17:00:00 13.4 8 Norte 14 Norte 0 975.5 -1.3 45
2020-01-13 16:00:00 13.8 10 Norte 20 Norte 0 975.7 -2.2 45
2020-01-13 15:00:00 14.7 12 Norte 20 Norte 0 976 -2.4 47
2020-01-13 14:00:00 15 5 Oeste 19 Sur 0 976.8 -1.7 38
2020-01-13 13:00:00 14.6 7 Sudoeste 19 Sur 0 977.9 -0.1 41
2020-01-13 12:00:00 12.7 11 Sur 21 Sur 0 978.4 0.8 60
2020-01-13 11:00:00 10 9 Sur 17 Sudoeste 0 978.5 1 85
2020-01-13 10:00:00 6.5 5 Sur 10 Sur 0 978 0.6 94
2020-01-13 09:00:00 3 3 Sudeste 10 Sur 0 977.6 0.1 94
2020-01-13 08:00:00 3.1 4 Sur 7 Sur 0 977.5 -0.4 94
2020-01-13 07:00:00 3.1 3 Sudeste 10 Sur 0.2 977.4 -0.9 93
2020-01-13 06:00:00 3.1 3 Sur 13 Sur 0 977.5 -1 93
2020-01-13 05:00:00 2.8 3 Sur 8 Sur 0 977.9 -1 92
2020-01-13 04:00:00 3.1 8 Sur 13 Sur 0 978.3 -1.2 91
2020-01-13 03:00:00 3.9 10 Sur 15 Sur 0 978.5 -1.5 90
2020-01-13 02:00:00 4.1 8 Sur 14 Sur 0 978.9 -1.1 88
2020-01-13 01:00:00 5.3 10 Sur 16 Sur 0 979.5 -0.4 85
2020-01-13 00:00:00 5.5 9 Sur 14 Sur 0 980 0.1 78
2020-01-12 23:00:00 4.4 9 Sur 13 Sur 0 980 0.1 83
2020-01-12 22:00:00 2.8 9 Sur 10 Sur 0 979.9 0.5 86
2020-01-12 21:00:00 3.6 9 Sur 10 Sur 0 979.9 0.9 84
2020-01-12 20:00:00 4.5 8 Sur 9 Sur 0 979.9 1 78
2020-01-12 19:00:00 7.3 4 Sur 10 Norte 0 979.4 0.2 66
2020-01-12 18:00:00 12.2 6 Norte 12 Norte 0 979 -0.4 49
2020-01-12 17:00:00 14 7 Norte 15 Norte 0 978.9 -1.2 40
2020-01-12 16:00:00 14.4 7 Norte 13 Nordeste 0 979.2 -1.9 43
2020-01-12 15:00:00 14.2 6 Norte 17 Norte 0 979.4 -2.7 42
2020-01-12 14:00:00 14.4 6 Norte 15 Norte 0 980.1 -2.1 46
2020-01-12 13:00:00 14.2 4 Oeste 10 Sur 0 981.1 -0.7 54
2020-01-12 12:00:00 12.5 4 Sur 10 Sur 0 982.1 0.5 62
2020-01-12 11:00:00 9.6 6 Sur 9 Sur 0 982.2 0.9 73
2020-01-12 10:00:00 5.7 6 Sur 13 Sur 0 981.8 0.8 93
2020-01-12 09:00:00 1.6 8 Sur 10 Sur 0 981.6 0.7 93
2020-01-12 08:00:00 1.7 6 Sur 9 Sur 0 981.3 0.2 92
2020-01-12 07:00:00 2.5 6 Sur 10 Sur 0 981 -0.3 92
2020-01-12 06:00:00 3.1 8 Sur 10 Sur 0 980.9 -0.2 91
2020-01-12 05:00:00 4.6 4 Sur 8 Sur 0 981.1 0 90
2020-01-12 04:00:00 4.9 3 Sudeste 12 Sur 0 981.3 0 90
2020-01-12 03:00:00 5.3 10 Sur 17 Sur 0 981.1 -0.3 89
2020-01-12 02:00:00 5.7 11 Sur 18 Sur 0 981.1 -0.2 88
2020-01-12 01:00:00 6.6 12 Sur 17 Sur 0 981.3 0.1 87
2020-01-12 00:00:00 6.9 10 Sur 19 Sur 0 981.4 0.5 85
2020-01-11 23:00:00 6.5 11 Sur 15 Sur 0 981.3 0.8 80
2020-01-11 22:00:00 6.1 9 Sur 13 Sur 0 981.2 1.2 73
2020-01-11 21:00:00 6 9 Sur 12 Sur 0 980.9 1.4 73
2020-01-11 20:00:00 5.5 8 Sur 10 Sur 0 980.5 1.4 74
2020-01-11 19:00:00 8.5 4 Sur 11 Norte 0 980 1.1 61
2020-01-11 18:00:00 12.5 6 Norte 15 Norte 0 979.5 0.5 48
2020-01-11 17:00:00 15.7 2 Noroeste 9 Noroeste 0 979.1 -0.3 34
2020-01-11 16:00:00 15.7 3 Noroeste 10 Noroeste 0 978.9 -1.4 31
2020-01-11 15:00:00 15.1 3 Nordeste 8 Norte 0 979 -1.9 32
2020-01-11 14:00:00 13.7 4 Norte 8 Sur 0 979.4 -1.6 36
2020-01-11 13:00:00 13.4 5 Sudoeste 10 Este 0 980.3 -0.1 41
2020-01-11 12:00:00 10.5 2 Oeste 10 Sur 0 980.9 1.3 51
2020-01-11 11:00:00 7.6 5 Sur 11 Sudoeste 0 981 1.8 68
2020-01-11 10:00:00 3.1 3 Sudoeste 11 Sur 0 980.4 1.5 92
2020-01-11 09:00:00 -0.6 8 Sur 9 Sur 0 979.6 1 93
2020-01-11 08:00:00 -0.7 8 Sur 10 Sur 0 979.2 0.5 92
2020-01-11 07:00:00 -0.9 7 Sur 9 Sur 0 978.9 0.1 91
2020-01-11 06:00:00 -0.4 6 Sur 10 Sur 0 978.6 0.1 91
2020-01-11 05:00:00 0.1 5 Sur 10 Sur 0 978.7 0.3 91
2020-01-11 04:00:00 0 5 Sur 9 Sur 0 978.8 0.3 90
2020-01-11 03:00:00 0.2 6 Sur 9 Sur 0 978.5 0 90
2020-01-11 02:00:00 0.5 4 Sur 10 Sur 0 978.4 -0.1 89
2020-01-11 01:00:00 0.8 9 Sur 10 Sur 0 978.5 0.1 88
2020-01-11 00:00:00 1 7 Sur 9 Sur 0 978.5 0.5 88
2020-01-10 23:00:00 1.5 4 Sur 5 Sur 0 978.5 1 83
2020-01-10 22:00:00 3 5 Sur 7 Sur 0 978.4 1.8 78
2020-01-10 21:00:00 6.6 6 Norte 13 Norte 0 978 2 63
2020-01-10 20:00:00 7.1 6 Sur 16 Norte 0 977.5 2.5 63
2020-01-10 19:00:00 9.8 9 Norte 21 Norte 0 976.6 1.6 54
2020-01-10 18:00:00 11.8 13 Norte 31 Norte 0 976 0.6 55
2020-01-10 17:00:00 13 18 Norte 33 Norte 0 975 -1.1 47
2020-01-10 16:00:00 13.2 19 Norte 32 Norte 0 975 -1.6 53
2020-01-10 15:00:00 12.6 14 Norte 30 Norte 0 975.4 -2.2 65
2020-01-10 14:00:00 11.6 15 Norte 26 Norte 0 976.1 -1.6 74
2020-01-10 13:00:00 10.7 11 Norte 20 Noroeste 0 976.6 -0.7 80
2020-01-10 12:00:00 10.9 14 Norte 22 Norte 0 977.6 0.9 78
2020-01-10 11:00:00 9.5 7 Nordeste 14 Nordeste 0 977.7 1.1 86
2020-01-10 10:00:00 9 5 Nordeste 7 Nordeste 0 977.3 0.5 91
2020-01-10 09:00:00 7.8 2 Noroeste 5 Noroeste 0 976.7 0.1 92
2020-01-10 08:00:00 7.3 0 Calma 5 Nordeste 0 976.6 0 92
2020-01-10 07:00:00 7 3 Nordeste 6 Nordeste 0 976.8 -0.2 92
2020-01-10 06:00:00 6.2 0 Calma 9 Noroeste 0 976.6 -0.4 92
2020-01-10 05:00:00 5.4 3 Este 6 Sur 0 976.6 -1 92
2020-01-10 04:00:00 4.7 2 Sudoeste 11 Sur 0 977 -0.9 92
2020-01-10 03:00:00 4.8 9 Sur 12 Sur 0 977 -1.6 92
2020-01-10 02:00:00 5 9 Sur 12 Sur 0 977.6 -0.8 92
2020-01-10 01:00:00 4.4 9 Sur 10 Sur 0 977.9 0.1 92
2020-01-10 00:00:00 3.5 5 Sur 8 Sur 0 978.6 0.7 90
2020-01-09 23:00:00 3.6 6 Sur 8 Sur 0 978.4 0.2 89
2020-01-09 22:00:00 4.5 2 Sur 9 Sur 0 977.8 -0.2 88
2020-01-09 21:00:00 5.1 6 Sur 9 Sur 0 977.9 1 85
2020-01-09 20:00:00 6.6 4 Sur 7 Sur 0 978.2 1 80
2020-01-09 19:00:00 9.6 2 Oeste 12 Norte 0 978 1 71
2020-01-09 18:00:00 12.2 5 Norte 16 Norte 0 976.9 -0.1 63
2020-01-09 17:00:00 13.9 9 Norte 18 Norte 0 977.2 -0.7 60
2020-01-09 16:00:00 16.1 6 Oeste 14 Oeste 0 977 -1.6 48
2020-01-09 15:00:00 16.3 4 Sur 13 Sur 0 977 -2.4 47
2020-01-09 14:00:00 15.8 5 Sur 16 Sudoeste 0 977.9 -1.3 50
2020-01-09 13:00:00 14.8 9 Sur 20 Sudoeste 0 978.6 -0.3 54
2020-01-09 12:00:00 13.3 10 Sur 19 Sur 0 979.4 1.1 63
2020-01-09 11:00:00 11.1 9 Sur 15 Sur 0 979.2 1.1 77
2020-01-09 10:00:00 7.7 9 Sur 15 Sur 0 978.9 1.1 88
2020-01-09 09:00:00 5.9 9 Sur 13 Sur 0 978.3 0.4 91
2020-01-09 08:00:00 6 9 Sur 18 Sur 0 978.1 0.1 91
2020-01-09 07:00:00 6.4 11 Sur 18 Sur 0 977.8 -0.7 90
2020-01-09 06:00:00 6.5 9 Sur 17 Sur 0 977.9 -0.9 88
2020-01-09 05:00:00 6.7 9 Sur 19 Sur 0 978 -0.7 88
2020-01-09 04:00:00 7 12 Sur 20 Sur 0 978.5 -0.3 90
2020-01-09 03:00:00 7.3 13 Sur 24 Sur 0 978.8 -0.2 89
2020-01-09 02:00:00 7.4 13 Sur 27 Sur 0 978.7 -0.2 88
2020-01-09 01:00:00 7.6 17 Sur 29 Sur 0 978.8 0 84
2020-01-09 00:00:00 7.9 14 Sur 24 Sudoeste 0 979 0.6 82
2020-01-08 23:00:00 8.4 13 Sur 21 Sur 0 978.9 0.7 75
2020-01-08 22:00:00 8.7 11 Sur 16 Sur 0 978.8 0.9 75
2020-01-08 21:00:00 7.8 9 Sur 12 Sur 0 978.4 0.7 73
2020-01-08 20:00:00 7.6 8 Sur 11 Sur 0 978.2 0.7 69
2020-01-08 19:00:00 9.8 8 Sur 10 Sur 0 977.9 0.4 60
2020-01-08 18:00:00 15.6 5 Norte 8 Norte 0 977.7 0.1 37
2020-01-08 17:00:00 18 3 Norte 8 Norte 0 977.5 -0.7 28
2020-01-08 16:00:00 18.2 4 Norte 9 Norte 0 977.5 -1.5 26
2020-01-08 15:00:00 18.1 5 Norte 9 Norte 0 977.6 -2 26
2020-01-08 14:00:00 17 3 Norte 9 Noroeste 0 978.2 -1.6 34
2020-01-08 13:00:00 15.2 3 Norte 10 Sur 0 979 -0.5 37
2020-01-08 12:00:00 12.8 7 Sur 12 Sudeste 0 979.6 0.4 47
2020-01-08 11:00:00 11.3 5 Sur 10 Sur 0 979.8 0.8 49
2020-01-08 10:00:00 6.1 5 Sur 11 Sur 0 979.5 0.5 71
2020-01-08 09:00:00 3.1 10 Sur 14 Sur 0 979.2 0.2 80
2020-01-08 08:00:00 3.1 11 Sur 20 Sur 0 979 -0.1 81
2020-01-08 07:00:00 3.7 10 Sur 14 Sur 0 979 -0.3 87
2020-01-08 06:00:00 3.1 8 Sur 10 Sur 0 979 -0.5 87
2020-01-08 05:00:00 3.7 4 Sur 13 Sur 0 979.1 -0.4 85
2020-01-08 04:00:00 4.3 5 Sur 15 Sur 0 979.3 -0.5 83
2020-01-08 03:00:00 5.2 9 Sur 17 Sur 0 979.5 -0.7 80
2020-01-08 02:00:00 6 6 Sur 17 Sur 0 979.5 -1 76
2020-01-08 01:00:00 6.3 14 Sur 17 Sur 0 979.8 -0.8 78
2020-01-08 00:00:00 4.9 6 Sur 9 Sur 0 980.2 -0.3 79
2020-01-07 23:00:00 7.4 9 Sur 17 Sur 0 980.5 0 71
2020-01-07 22:00:00 6.7 10 Sur 14 Sur 0 980.6 0.3 71
2020-01-07 21:00:00 6.1 9 Sur 12 Sur 0 980.5 0.5 74
2020-01-07 20:00:00 6.7 7 Sur 10 Sur 0 980.5 0.9 71
2020-01-07 19:00:00 9.2 8 Sur 9 Sur 0 980.3 0.6 61
2020-01-07 18:00:00 15.7 7 Norte 10 Norte 0 980 0.2 37
2020-01-07 17:00:00 18.4 2 Norte 9 Sudoeste 0 979.6 -0.6 23
2020-01-07 16:00:00 19.1 5 Sur 15 Sur 0 979.7 -1.3 23
2020-01-07 15:00:00 18.2 6 Sur 16 Sudoeste 0 979.8 -2.2 29
2020-01-07 14:00:00 17.1 9 Sur 16 Sur 0 980.2 -1.4 37
2020-01-07 13:00:00 14.9 10 Sur 19 Sur 0 981 -0.4 49
2020-01-07 12:00:00 12.1 4 Nordeste 9 Este 0 982 1.1 60
2020-01-07 11:00:00 9 7 Sur 14 Sur 0 981.6 0.9 82
2020-01-07 10:00:00 5.1 9 Sur 17 Sur 0.2 981.4 0.6 92
2020-01-07 09:00:00 3.1 8 Sur 20 Sur 0 980.9 0.1 93
2020-01-07 08:00:00 2.8 10 Sur 17 Sur 0 980.7 0 92
2020-01-07 07:00:00 3.8 8 Sur 11 Sur 0 980.8 0.2 92
2020-01-07 06:00:00 4.4 7 Sur 18 Sur 0 980.8 0.3 92
2020-01-07 05:00:00 4.9 10 Sur 19 Sur 0 980.7 0.3 91
2020-01-07 04:00:00 5.4 10 Sur 18 Sur 0 980.6 -0.1 90
2020-01-07 03:00:00 5.5 11 Sur 19 Sur 0 980.5 -0.4 90
2020-01-07 02:00:00 6 11 Sur 15 Sur 0 980.4 -0.1 89
2020-01-07 01:00:00 5.9 11 Sur 15 Sur 0 980.7 0.6 90
2020-01-07 00:00:00 5.3 4 Sur 12 Sur 0 980.9 1 87
2020-01-06 23:00:00 6 6 Sur 12 Sur 0 980.5 0.7 87
2020-01-06 22:00:00 6.1 9 Sur 14 Sur 0 980.1 0.9 88
2020-01-06 21:00:00 5.7 9 Sur 10 Sur 0 979.9 1.4 87
2020-01-06 20:00:00 6.1 6 Sur 8 Sur 0 979.8 1.7 82
2020-01-06 19:00:00 8.8 2 Sur 6 Norte 0 979.2 1.1 71
2020-01-06 18:00:00 13.4 4 Norte 10 Norte 0 978.5 0.2 54
2020-01-06 17:00:00 15.8 2 Nordeste 8 Nordeste 0 978.1 -1 41
2020-01-06 16:00:00 16 4 Este 9 Norte 0 978.1 -1.8 43
2020-01-06 15:00:00 15.9 2 Nordeste 8 Norte 0 978.3 -2.1 42
2020-01-06 14:00:00 14.6 3 Noroeste 13 Sudoeste 0 979.1 -1.2 51
2020-01-06 13:00:00 13.9 7 Sur 17 Sudeste 0 979.9 -0.1 56
2020-01-06 12:00:00 12.5 10 Sudeste 17 Sudeste 0 980.4 0.9 62
2020-01-06 11:00:00 9.8 5 Sur 10 Sur 0 980.3 1.6 85
2020-01-06 10:00:00 5.4 3 Sur 7 Este 0 980 1.8 93